sensor_id;sensor_type;location;lat;lon;timestamp;P1;durP1;ratioP1;P2;durP2;ratioP2
80193;SDS011;69515;42.072;21.504;2023-07-31T00:00:02;0.35;;;0.30;;
80193;SDS011;69515;42.072;21.504;2023-07-31T00:02:28;0.82;;;0.40;;
80193;SDS011;69515;42.072;21.504;2023-07-31T00:04:55;0.55;;;0.40;;
80193;SDS011;69515;42.072;21.504;2023-07-31T00:07:21;0.40;;;0.40;;
80193;SDS011;69515;42.072;21.504;2023-07-31T00:09:47;0.68;;;0.38;;
80193;SDS011;69515;42.072;21.504;2023-07-31T00:12:13;0.30;;;0.25;;
80193;SDS011;69515;42.072;21.504;2023-07-31T00:14:39;0.52;;;0.30;;
80193;SDS011;69515;42.072;21.504;2023-07-31T00:17:06;0.30;;;0.30;;
80193;SDS011;69515;42.072;21.504;2023-07-31T00:19:32;0.25;;;0.25;;
80193;SDS011;69515;42.072;21.504;2023-07-31T00:21:58;0.25;;;0.20;;
80193;SDS011;69515;42.072;21.504;2023-07-31T00:24:25;0.20;;;0.20;;
80193;SDS011;69515;42.072;21.504;2023-07-31T00:26:51;0.20;;;0.20;;
80193;SDS011;69515;42.072;21.504;2023-07-31T00:29:17;0.20;;;0.20;;
80193;SDS011;69515;42.072;21.504;2023-07-31T00:31:43;0.20;;;0.20;;
80193;SDS011;69515;42.072;21.504;2023-07-31T00:34:09;0.30;;;0.30;;
80193;SDS011;69515;42.072;21.504;2023-07-31T00:36:36;0.75;;;0.40;;
80193;SDS011;69515;42.072;21.504;2023-07-31T00:39:02;0.20;;;0.20;;
80193;SDS011;69515;42.072;21.504;2023-07-31T00:41:29;0.40;;;0.40;;
80193;SDS011;69515;42.072;21.504;2023-07-31T00:43:56;0.17;;;0.17;;
80193;SDS011;69515;42.072;21.504;2023-07-31T00:46:22;0.55;;;0.40;;
80193;SDS011;69515;42.072;21.504;2023-07-31T00:48:48;0.20;;;0.20;;
80193;SDS011;69515;42.072;21.504;2023-07-31T00:51:15;0.30;;;0.30;;
80193;SDS011;69515;42.072;21.504;2023-07-31T00:53:42;0.43;;;0.30;;
80193;SDS011;69515;42.072;21.504;2023-07-31T00:56:08;0.22;;;0.22;;
80193;SDS011;69515;42.072;21.504;2023-07-31T00:58:35;0.20;;;0.20;;
80193;SDS011;69515;42.072;21.504;2023-07-31T01:01:01;0.32;;;0.30;;
80193;SDS011;69515;42.072;21.504;2023-07-31T01:03:27;0.30;;;0.30;;
80193;SDS011;69515;42.072;21.504;2023-07-31T01:06:01;0.35;;;0.35;;
80193;SDS011;69515;42.072;21.504;2023-07-31T01:08:40;0.30;;;0.30;;
80193;SDS011;69515;42.072;21.504;2023-07-31T01:11:10;0.30;;;0.30;;
80193;SDS011;69515;42.072;21.504;2023-07-31T01:13:40;0.13;;;0.13;;
80193;SDS011;69515;42.072;21.504;2023-07-31T01:16:06;0.30;;;0.30;;
80193;SDS011;69515;42.072;21.504;2023-07-31T01:18:33;0.25;;;0.25;;
80193;SDS011;69515;42.072;21.504;2023-07-31T01:21:15;0.22;;;0.22;;
80193;SDS011;69515;42.072;21.504;2023-07-31T01:23:51;0.70;;;0.40;;
80193;SDS011;69515;42.072;21.504;2023-07-31T01:26:21;0.30;;;0.30;;
80193;SDS011;69515;42.072;21.504;2023-07-31T01:31:16;0.20;;;0.20;;
80193;SDS011;69515;42.072;21.504;2023-07-31T01:33:44;0.40;;;0.40;;
80193;SDS011;69515;42.072;21.504;2023-07-31T01:36:11;0.30;;;0.30;;
80193;SDS011;69515;42.072;21.504;2023-07-31T01:38:37;0.22;;;0.22;;
80193;SDS011;69515;42.072;21.504;2023-07-31T01:41:03;0.30;;;0.30;;
80193;SDS011;69515;42.072;21.504;2023-07-31T01:43:30;0.30;;;0.30;;
80193;SDS011;69515;42.072;21.504;2023-07-31T01:45:56;0.28;;;0.28;;
80193;SDS011;69515;42.072;21.504;2023-07-31T01:48:22;0.20;;;0.20;;
80193;SDS011;69515;42.072;21.504;2023-07-31T01:50:48;0.25;;;0.25;;
80193;SDS011;69515;42.072;21.504;2023-07-31T01:53:14;0.30;;;0.30;;
80193;SDS011;69515;42.072;21.504;2023-07-31T01:55:41;0.20;;;0.20;;
80193;SDS011;69515;42.072;21.504;2023-07-31T01:58:07;0.35;;;0.35;;
80193;SDS011;69515;42.072;21.504;2023-07-31T02:00:33;0.15;;;0.15;;
80193;SDS011;69515;42.072;21.504;2023-07-31T02:02:59;0.22;;;0.22;;
80193;SDS011;69515;42.072;21.504;2023-07-31T02:05:26;0.20;;;0.20;;
80193;SDS011;69515;42.072;21.504;2023-07-31T02:07:52;0.40;;;0.40;;
80193;SDS011;69515;42.072;21.504;2023-07-31T02:10:18;0.30;;;0.30;;
80193;SDS011;69515;42.072;21.504;2023-07-31T02:12:44;0.22;;;0.22;;
80193;SDS011;69515;42.072;21.504;2023-07-31T02:15:11;0.28;;;0.28;;
80193;SDS011;69515;42.072;21.504;2023-07-31T02:17:37;0.30;;;0.30;;
80193;SDS011;69515;42.072;21.504;2023-07-31T02:20:03;0.30;;;0.30;;
80193;SDS011;69515;42.072;21.504;2023-07-31T02:25:36;0.35;;;0.35;;
80193;SDS011;69515;42.072;21.504;2023-07-31T02:28:02;0.50;;;0.50;;
80193;SDS011;69515;42.072;21.504;2023-07-31T02:30:29;0.30;;;0.30;;
80193;SDS011;69515;42.072;21.504;2023-07-31T02:32:55;0.40;;;0.40;;
80193;SDS011;69515;42.072;21.504;2023-07-31T02:35:21;0.50;;;0.50;;
80193;SDS011;69515;42.072;21.504;2023-07-31T02:37:47;0.50;;;0.50;;
80193;SDS011;69515;42.072;21.504;2023-07-31T02:40:14;0.50;;;0.50;;
80193;SDS011;69515;42.072;21.504;2023-07-31T02:42:40;0.50;;;0.50;;
80193;SDS011;69515;42.072;21.504;2023-07-31T02:45:06;0.52;;;0.52;;
80193;SDS011;69515;42.072;21.504;2023-07-31T02:47:33;0.38;;;0.35;;
80193;SDS011;69515;42.072;21.504;2023-07-31T02:49:59;0.40;;;0.40;;
80193;SDS011;69515;42.072;21.504;2023-07-31T02:52:25;0.43;;;0.40;;
80193;SDS011;69515;42.072;21.504;2023-07-31T02:54:52;0.40;;;0.40;;
80193;SDS011;69515;42.072;21.504;2023-07-31T02:57:18;0.35;;;0.35;;
80193;SDS011;69515;42.072;21.504;2023-07-31T02:59:44;0.30;;;0.30;;
80193;SDS011;69515;42.072;21.504;2023-07-31T03:02:10;0.50;;;0.50;;
80193;SDS011;69515;42.072;21.504;2023-07-31T03:04:38;0.40;;;0.40;;
80193;SDS011;69515;42.072;21.504;2023-07-31T03:07:04;0.30;;;0.30;;
80193;SDS011;69515;42.072;21.504;2023-07-31T03:09:30;0.40;;;0.40;;
80193;SDS011;69515;42.072;21.504;2023-07-31T03:11:57;0.47;;;0.40;;
80193;SDS011;69515;42.072;21.504;2023-07-31T03:14:23;0.30;;;0.30;;
80193;SDS011;69515;42.072;21.504;2023-07-31T03:16:51;0.50;;;0.50;;
80193;SDS011;69515;42.072;21.504;2023-07-31T03:19:17;0.40;;;0.40;;
80193;SDS011;69515;42.072;21.504;2023-07-31T03:21:44;0.45;;;0.45;;
80193;SDS011;69515;42.072;21.504;2023-07-31T03:24:11;0.40;;;0.40;;
80193;SDS011;69515;42.072;21.504;2023-07-31T03:26:38;0.40;;;0.40;;
80193;SDS011;69515;42.072;21.504;2023-07-31T03:29:06;0.50;;;0.50;;
80193;SDS011;69515;42.072;21.504;2023-07-31T03:31:32;0.40;;;0.40;;
80193;SDS011;69515;42.072;21.504;2023-07-31T03:33:59;0.40;;;0.40;;
80193;SDS011;69515;42.072;21.504;2023-07-31T03:36:25;0.38;;;0.38;;
80193;SDS011;69515;42.072;21.504;2023-07-31T03:38:51;0.30;;;0.30;;
80193;SDS011;69515;42.072;21.504;2023-07-31T03:41:17;0.30;;;0.30;;
80193;SDS011;69515;42.072;21.504;2023-07-31T03:43:45;0.40;;;0.40;;
80193;SDS011;69515;42.072;21.504;2023-07-31T03:46:11;0.47;;;0.38;;
80193;SDS011;69515;42.072;21.504;2023-07-31T03:48:38;0.30;;;0.30;;
80193;SDS011;69515;42.072;21.504;2023-07-31T03:51:04;0.40;;;0.40;;
80193;SDS011;69515;42.072;21.504;2023-07-31T03:53:30;0.30;;;0.30;;
80193;SDS011;69515;42.072;21.504;2023-07-31T03:55:56;0.40;;;0.40;;
80193;SDS011;69515;42.072;21.504;2023-07-31T03:58:22;0.15;;;0.15;;
80193;SDS011;69515;42.072;21.504;2023-07-31T04:00:48;0.30;;;0.30;;
80193;SDS011;69515;42.072;21.504;2023-07-31T04:03:15;0.75;;;0.30;;
80193;SDS011;69515;42.072;21.504;2023-07-31T04:05:41;0.40;;;0.40;;
80193;SDS011;69515;42.072;21.504;2023-07-31T04:08:07;0.68;;;0.50;;
80193;SDS011;69515;42.072;21.504;2023-07-31T04:10:33;0.40;;;0.40;;
80193;SDS011;69515;42.072;21.504;2023-07-31T04:12:59;0.40;;;0.40;;
80193;SDS011;69515;42.072;21.504;2023-07-31T04:15:26;0.30;;;0.30;;
80193;SDS011;69515;42.072;21.504;2023-07-31T04:17:52;0.38;;;0.38;;
80193;SDS011;69515;42.072;21.504;2023-07-31T04:20:18;0.30;;;0.30;;
80193;SDS011;69515;42.072;21.504;2023-07-31T04:22:44;0.40;;;0.40;;
80193;SDS011;69515;42.072;21.504;2023-07-31T04:25:10;0.52;;;0.50;;
80193;SDS011;69515;42.072;21.504;2023-07-31T04:27:37;0.40;;;0.40;;
80193;SDS011;69515;42.072;21.504;2023-07-31T04:30:03;0.40;;;0.40;;
80193;SDS011;69515;42.072;21.504;2023-07-31T04:32:29;1.42;;;0.70;;
80193;SDS011;69515;42.072;21.504;2023-07-31T04:34:55;0.20;;;0.20;;
80193;SDS011;69515;42.072;21.504;2023-07-31T04:37:22;0.25;;;0.25;;
80193;SDS011;69515;42.072;21.504;2023-07-31T04:39:48;0.20;;;0.20;;
80193;SDS011;69515;42.072;21.504;2023-07-31T04:42:14;0.50;;;0.50;;
80193;SDS011;69515;42.072;21.504;2023-07-31T04:44:40;0.45;;;0.40;;
80193;SDS011;69515;42.072;21.504;2023-07-31T04:47:06;0.25;;;0.20;;
80193;SDS011;69515;42.072;21.504;2023-07-31T04:49:32;0.40;;;0.40;;
80193;SDS011;69515;42.072;21.504;2023-07-31T04:51:59;0.40;;;0.40;;
80193;SDS011;69515;42.072;21.504;2023-07-31T04:54:25;0.30;;;0.30;;
80193;SDS011;69515;42.072;21.504;2023-07-31T04:56:51;0.22;;;0.22;;
80193;SDS011;69515;42.072;21.504;2023-07-31T04:59:17;0.40;;;0.40;;
80193;SDS011;69515;42.072;21.504;2023-07-31T05:01:44;0.20;;;0.20;;
80193;SDS011;69515;42.072;21.504;2023-07-31T05:04:12;0.30;;;0.30;;
80193;SDS011;69515;42.072;21.504;2023-07-31T05:06:39;0.70;;;0.38;;
80193;SDS011;69515;42.072;21.504;2023-07-31T05:09:05;0.47;;;0.40;;
80193;SDS011;69515;42.072;21.504;2023-07-31T05:11:31;0.30;;;0.30;;
80193;SDS011;69515;42.072;21.504;2023-07-31T05:13:57;0.30;;;0.30;;
80193;SDS011;69515;42.072;21.504;2023-07-31T05:16:24;0.30;;;0.30;;
80193;SDS011;69515;42.072;21.504;2023-07-31T05:18:50;0.30;;;0.30;;
80193;SDS011;69515;42.072;21.504;2023-07-31T05:21:16;0.25;;;0.25;;
80193;SDS011;69515;42.072;21.504;2023-07-31T05:23:42;0.50;;;0.38;;
80193;SDS011;69515;42.072;21.504;2023-07-31T05:26:08;0.40;;;0.30;;
80193;SDS011;69515;42.072;21.504;2023-07-31T05:28:35;0.47;;;0.30;;
80193;SDS011;69515;42.072;21.504;2023-07-31T05:31:02;0.30;;;0.30;;
80193;SDS011;69515;42.072;21.504;2023-07-31T05:33:28;0.30;;;0.30;;
80193;SDS011;69515;42.072;21.504;2023-07-31T05:41:06;0.43;;;0.30;;
80193;SDS011;69515;42.072;21.504;2023-07-31T05:43:32;0.40;;;0.40;;
80193;SDS011;69515;42.072;21.504;2023-07-31T05:45:58;0.30;;;0.30;;
80193;SDS011;69515;42.072;21.504;2023-07-31T05:48:25;0.38;;;0.38;;
80193;SDS011;69515;42.072;21.504;2023-07-31T05:50:51;1.10;;;0.30;;
80193;SDS011;69515;42.072;21.504;2023-07-31T05:53:17;0.30;;;0.30;;
80193;SDS011;69515;42.072;21.504;2023-07-31T05:55:43;0.30;;;0.30;;
80193;SDS011;69515;42.072;21.504;2023-07-31T05:58:09;0.30;;;0.28;;
80193;SDS011;69515;42.072;21.504;2023-07-31T06:00:36;0.40;;;0.40;;
80193;SDS011;69515;42.072;21.504;2023-07-31T06:03:02;0.30;;;0.30;;
80193;SDS011;69515;42.072;21.504;2023-07-31T06:05:28;0.30;;;0.30;;
80193;SDS011;69515;42.072;21.504;2023-07-31T06:07:55;0.20;;;0.20;;
80193;SDS011;69515;42.072;21.504;2023-07-31T06:10:21;0.20;;;0.20;;
80193;SDS011;69515;42.072;21.504;2023-07-31T06:12:47;0.63;;;0.20;;
80193;SDS011;69515;42.072;21.504;2023-07-31T06:15:14;0.30;;;0.30;;
80193;SDS011;69515;42.072;21.504;2023-07-31T06:17:40;0.52;;;0.40;;
80193;SDS011;69515;42.072;21.504;2023-07-31T06:20:08;0.30;;;0.30;;
80193;SDS011;69515;42.072;21.504;2023-07-31T06:22:35;0.40;;;0.25;;
80193;SDS011;69515;42.072;21.504;2023-07-31T06:25:01;0.80;;;0.40;;
80193;SDS011;69515;42.072;21.504;2023-07-31T06:27:27;0.30;;;0.30;;
80193;SDS011;69515;42.072;21.504;2023-07-31T06:29:54;0.35;;;0.30;;
80193;SDS011;69515;42.072;21.504;2023-07-31T06:32:20;0.40;;;0.30;;
80193;SDS011;69515;42.072;21.504;2023-07-31T06:34:46;0.20;;;0.20;;
80193;SDS011;69515;42.072;21.504;2023-07-31T06:37:12;0.30;;;0.30;;
80193;SDS011;69515;42.072;21.504;2023-07-31T06:39:39;0.28;;;0.17;;
80193;SDS011;69515;42.072;21.504;2023-07-31T06:42:05;0.32;;;0.30;;
80193;SDS011;69515;42.072;21.504;2023-07-31T06:44:31;0.30;;;0.30;;
80193;SDS011;69515;42.072;21.504;2023-07-31T06:46:57;0.10;;;0.10;;
80193;SDS011;69515;42.072;21.504;2023-07-31T06:49:23;0.63;;;0.20;;
80193;SDS011;69515;42.072;21.504;2023-07-31T06:51:49;0.20;;;0.20;;
80193;SDS011;69515;42.072;21.504;2023-07-31T06:54:16;0.10;;;0.10;;
80193;SDS011;69515;42.072;21.504;2023-07-31T06:56:42;0.10;;;0.10;;
80193;SDS011;69515;42.072;21.504;2023-07-31T06:59:08;0.30;;;0.10;;
80193;SDS011;69515;42.072;21.504;2023-07-31T07:01:34;0.20;;;0.20;;
80193;SDS011;69515;42.072;21.504;2023-07-31T07:04:01;0.10;;;0.10;;
80193;SDS011;69515;42.072;21.504;2023-07-31T07:06:27;0.10;;;0.10;;
80193;SDS011;69515;42.072;21.504;2023-07-31T07:08:53;0.00;;;0.00;;
80193;SDS011;69515;42.072;21.504;2023-07-31T07:11:19;0.08;;;0.08;;
80193;SDS011;69515;42.072;21.504;2023-07-31T07:13:46;0.13;;;0.13;;
80193;SDS011;69515;42.072;21.504;2023-07-31T07:16:12;0.00;;;0.00;;
80193;SDS011;69515;42.072;21.504;2023-07-31T07:18:38;0.10;;;0.08;;
80193;SDS011;69515;42.072;21.504;2023-07-31T07:21:04;0.00;;;0.00;;
80193;SDS011;69515;42.072;21.504;2023-07-31T07:23:31;0.00;;;0.00;;
80193;SDS011;69515;42.072;21.504;2023-07-31T07:25:57;0.00;;;0.00;;
80193;SDS011;69515;42.072;21.504;2023-07-31T07:28:23;0.20;;;0.20;;
80193;SDS011;69515;42.072;21.504;2023-07-31T07:30:52;0.03;;;0.03;;
80193;SDS011;69515;42.072;21.504;2023-07-31T07:33:19;0.10;;;0.10;;
80193;SDS011;69515;42.072;21.504;2023-07-31T07:35:45;0.10;;;0.10;;
80193;SDS011;69515;42.072;21.504;2023-07-31T07:38:13;0.00;;;0.00;;
80193;SDS011;69515;42.072;21.504;2023-07-31T07:40:40;0.15;;;0.10;;
80193;SDS011;69515;42.072;21.504;2023-07-31T07:43:06;0.10;;;0.10;;
80193;SDS011;69515;42.072;21.504;2023-07-31T07:45:32;0.10;;;0.10;;
80193;SDS011;69515;42.072;21.504;2023-07-31T07:47:59;0.00;;;0.00;;
80193;SDS011;69515;42.072;21.504;2023-07-31T07:50:25;0.03;;;0.03;;
80193;SDS011;69515;42.072;21.504;2023-07-31T07:52:51;0.10;;;0.10;;
80193;SDS011;69515;42.072;21.504;2023-07-31T07:55:17;0.05;;;0.05;;
80193;SDS011;69515;42.072;21.504;2023-07-31T07:57:43;0.20;;;0.10;;
80193;SDS011;69515;42.072;21.504;2023-07-31T08:00:10;0.10;;;0.10;;
80193;SDS011;69515;42.072;21.504;2023-07-31T08:02:36;0.08;;;0.08;;
80193;SDS011;69515;42.072;21.504;2023-07-31T08:05:02;0.10;;;0.10;;
80193;SDS011;69515;42.072;21.504;2023-07-31T08:07:28;0.00;;;0.00;;
80193;SDS011;69515;42.072;21.504;2023-07-31T08:09:55;0.00;;;0.00;;
80193;SDS011;69515;42.072;21.504;2023-07-31T08:12:21;0.10;;;0.00;;
80193;SDS011;69515;42.072;21.504;2023-07-31T08:14:47;0.28;;;0.10;;
80193;SDS011;69515;42.072;21.504;2023-07-31T08:17:13;0.10;;;0.10;;
80193;SDS011;69515;42.072;21.504;2023-07-31T08:19:39;0.10;;;0.10;;
80193;SDS011;69515;42.072;21.504;2023-07-31T08:22:05;0.08;;;0.08;;
80193;SDS011;69515;42.072;21.504;2023-07-31T08:24:32;0.10;;;0.10;;
80193;SDS011;69515;42.072;21.504;2023-07-31T08:26:58;0.10;;;0.10;;
80193;SDS011;69515;42.072;21.504;2023-07-31T08:29:24;0.05;;;0.05;;
80193;SDS011;69515;42.072;21.504;2023-07-31T08:31:51;0.63;;;0.10;;
80193;SDS011;69515;42.072;21.504;2023-07-31T08:34:17;0.13;;;0.10;;
80193;SDS011;69515;42.072;21.504;2023-07-31T08:36:43;0.00;;;0.00;;
80193;SDS011;69515;42.072;21.504;2023-07-31T08:39:09;0.10;;;0.10;;
80193;SDS011;69515;42.072;21.504;2023-07-31T08:41:39;0.10;;;0.10;;
80193;SDS011;69515;42.072;21.504;2023-07-31T08:44:05;0.00;;;0.00;;
80193;SDS011;69515;42.072;21.504;2023-07-31T08:46:32;0.03;;;0.03;;
80193;SDS011;69515;42.072;21.504;2023-07-31T08:48:58;0.32;;;0.20;;
80193;SDS011;69515;42.072;21.504;2023-07-31T08:51:25;0.00;;;0.00;;
80193;SDS011;69515;42.072;21.504;2023-07-31T08:53:52;0.00;;;0.00;;
80193;SDS011;69515;42.072;21.504;2023-07-31T08:56:19;0.03;;;0.03;;
80193;SDS011;69515;42.072;21.504;2023-07-31T08:58:45;0.00;;;0.00;;
80193;SDS011;69515;42.072;21.504;2023-07-31T09:01:12;0.20;;;0.00;;
80193;SDS011;69515;42.072;21.504;2023-07-31T09:03:39;0.03;;;0.03;;
80193;SDS011;69515;42.072;21.504;2023-07-31T09:06:06;0.00;;;0.00;;
80193;SDS011;69515;42.072;21.504;2023-07-31T09:08:32;0.10;;;0.10;;
80193;SDS011;69515;42.072;21.504;2023-07-31T09:10:59;0.00;;;0.00;;
80193;SDS011;69515;42.072;21.504;2023-07-31T09:13:28;0.08;;;0.08;;
80193;SDS011;69515;42.072;21.504;2023-07-31T09:15:55;0.25;;;0.10;;
80193;SDS011;69515;42.072;21.504;2023-07-31T09:18:22;0.00;;;0.00;;
80193;SDS011;69515;42.072;21.504;2023-07-31T09:21:04;0.08;;;0.08;;
80193;SDS011;69515;42.072;21.504;2023-07-31T09:23:44;0.10;;;0.10;;
80193;SDS011;69515;42.072;21.504;2023-07-31T09:26:11;0.00;;;0.00;;
80193;SDS011;69515;42.072;21.504;2023-07-31T09:28:37;0.00;;;0.00;;
80193;SDS011;69515;42.072;21.504;2023-07-31T09:31:03;0.00;;;0.00;;
80193;SDS011;69515;42.072;21.504;2023-07-31T09:33:29;0.00;;;0.00;;
80193;SDS011;69515;42.072;21.504;2023-07-31T09:35:58;0.40;;;0.10;;
80193;SDS011;69515;42.072;21.504;2023-07-31T09:38:25;0.10;;;0.10;;
80193;SDS011;69515;42.072;21.504;2023-07-31T09:40:51;0.00;;;0.00;;
80193;SDS011;69515;42.072;21.504;2023-07-31T09:43:18;0.10;;;0.10;;
80193;SDS011;69515;42.072;21.504;2023-07-31T09:45:45;0.15;;;0.13;;
80193;SDS011;69515;42.072;21.504;2023-07-31T09:48:12;0.10;;;0.10;;
80193;SDS011;69515;42.072;21.504;2023-07-31T09:50:41;0.05;;;0.05;;
80193;SDS011;69515;42.072;21.504;2023-07-31T09:53:08;0.10;;;0.10;;
80193;SDS011;69515;42.072;21.504;2023-07-31T09:55:35;0.13;;;0.05;;
80193;SDS011;69515;42.072;21.504;2023-07-31T09:58:05;0.00;;;0.00;;
80193;SDS011;69515;42.072;21.504;2023-07-31T10:00:31;0.00;;;0.00;;
80193;SDS011;69515;42.072;21.504;2023-07-31T10:03:01;0.08;;;0.08;;
80193;SDS011;69515;42.072;21.504;2023-07-31T10:05:34;0.00;;;0.00;;
80193;SDS011;69515;42.072;21.504;2023-07-31T10:08:01;0.00;;;0.00;;
80193;SDS011;69515;42.072;21.504;2023-07-31T10:10:27;0.10;;;0.10;;
80193;SDS011;69515;42.072;21.504;2023-07-31T10:12:54;0.15;;;0.15;;
80193;SDS011;69515;42.072;21.504;2023-07-31T10:15:21;0.00;;;0.00;;
80193;SDS011;69515;42.072;21.504;2023-07-31T10:17:49;0.10;;;0.10;;
80193;SDS011;69515;42.072;21.504;2023-07-31T10:20:16;0.10;;;0.10;;
80193;SDS011;69515;42.072;21.504;2023-07-31T10:22:43;0.05;;;0.05;;
80193;SDS011;69515;42.072;21.504;2023-07-31T10:25:12;0.08;;;0.08;;
80193;SDS011;69515;42.072;21.504;2023-07-31T10:27:38;0.00;;;0.00;;
80193;SDS011;69515;42.072;21.504;2023-07-31T10:30:06;0.10;;;0.10;;
80193;SDS011;69515;42.072;21.504;2023-07-31T10:32:33;0.00;;;0.00;;
80193;SDS011;69515;42.072;21.504;2023-07-31T10:35:00;0.00;;;0.00;;
80193;SDS011;69515;42.072;21.504;2023-07-31T10:37:28;0.10;;;0.10;;
80193;SDS011;69515;42.072;21.504;2023-07-31T10:39:55;0.03;;;0.03;;
80193;SDS011;69515;42.072;21.504;2023-07-31T10:42:33;0.00;;;0.00;;
80193;SDS011;69515;42.072;21.504;2023-07-31T10:45:00;0.10;;;0.10;;
80193;SDS011;69515;42.072;21.504;2023-07-31T10:47:27;0.00;;;0.00;;
80193;SDS011;69515;42.072;21.504;2023-07-31T10:49:54;0.25;;;0.13;;
80193;SDS011;69515;42.072;21.504;2023-07-31T10:52:36;0.10;;;0.10;;
80193;SDS011;69515;42.072;21.504;2023-07-31T10:55:38;0.00;;;0.00;;
80193;SDS011;69515;42.072;21.504;2023-07-31T10:57:58;0.00;;;0.00;;
80193;SDS011;69515;42.072;21.504;2023-07-31T11:00:31;0.03;;;0.03;;
80193;SDS011;69515;42.072;21.504;2023-07-31T11:02:57;0.00;;;0.00;;
80193;SDS011;69515;42.072;21.504;2023-07-31T11:08:12;0.03;;;0.03;;
80193;SDS011;69515;42.072;21.504;2023-07-31T11:10:38;0.03;;;0.03;;
80193;SDS011;69515;42.072;21.504;2023-07-31T11:13:04;0.00;;;0.00;;
80193;SDS011;69515;42.072;21.504;2023-07-31T11:15:31;0.00;;;0.00;;
80193;SDS011;69515;42.072;21.504;2023-07-31T11:17:57;0.08;;;0.08;;
80193;SDS011;69515;42.072;21.504;2023-07-31T11:20:24;0.05;;;0.05;;
80193;SDS011;69515;42.072;21.504;2023-07-31T11:22:50;0.00;;;0.00;;
80193;SDS011;69515;42.072;21.504;2023-07-31T11:25:16;0.03;;;0.03;;
80193;SDS011;69515;42.072;21.504;2023-07-31T11:27:43;0.00;;;0.00;;
80193;SDS011;69515;42.072;21.504;2023-07-31T11:30:11;0.17;;;0.17;;
80193;SDS011;69515;42.072;21.504;2023-07-31T11:32:37;0.00;;;0.00;;
80193;SDS011;69515;42.072;21.504;2023-07-31T11:35:04;0.10;;;0.10;;
80193;SDS011;69515;42.072;21.504;2023-07-31T11:37:41;0.10;;;0.10;;
80193;SDS011;69515;42.072;21.504;2023-07-31T11:40:08;0.00;;;0.00;;
80193;SDS011;69515;42.072;21.504;2023-07-31T11:42:35;0.13;;;0.10;;
80193;SDS011;69515;42.072;21.504;2023-07-31T11:45:05;0.00;;;0.00;;
80193;SDS011;69515;42.072;21.504;2023-07-31T11:47:35;0.00;;;0.00;;
80193;SDS011;69515;42.072;21.504;2023-07-31T11:50:02;0.00;;;0.00;;
80193;SDS011;69515;42.072;21.504;2023-07-31T11:52:29;0.10;;;0.10;;
80193;SDS011;69515;42.072;21.504;2023-07-31T11:54:56;0.00;;;0.00;;
80193;SDS011;69515;42.072;21.504;2023-07-31T11:57:22;0.10;;;0.10;;
80193;SDS011;69515;42.072;21.504;2023-07-31T11:59:49;0.00;;;0.00;;
80193;SDS011;69515;42.072;21.504;2023-07-31T12:02:16;0.20;;;0.05;;
80193;SDS011;69515;42.072;21.504;2023-07-31T12:04:43;0.00;;;0.00;;
80193;SDS011;69515;42.072;21.504;2023-07-31T12:07:10;0.10;;;0.10;;
80193;SDS011;69515;42.072;21.504;2023-07-31T12:09:38;0.00;;;0.00;;
80193;SDS011;69515;42.072;21.504;2023-07-31T12:12:07;0.00;;;0.00;;
80193;SDS011;69515;42.072;21.504;2023-07-31T12:14:36;0.10;;;0.10;;
80193;SDS011;69515;42.072;21.504;2023-07-31T12:17:08;0.00;;;0.00;;
80193;SDS011;69515;42.072;21.504;2023-07-31T12:19:34;0.10;;;0.10;;
80193;SDS011;69515;42.072;21.504;2023-07-31T12:22:00;0.00;;;0.00;;
80193;SDS011;69515;42.072;21.504;2023-07-31T12:24:27;0.00;;;0.00;;
80193;SDS011;69515;42.072;21.504;2023-07-31T12:26:53;0.03;;;0.03;;
80193;SDS011;69515;42.072;21.504;2023-07-31T12:29:20;0.00;;;0.00;;
80193;SDS011;69515;42.072;21.504;2023-07-31T12:31:46;0.10;;;0.10;;
80193;SDS011;69515;42.072;21.504;2023-07-31T12:34:19;0.10;;;0.10;;
80193;SDS011;69515;42.072;21.504;2023-07-31T12:36:46;0.05;;;0.05;;
80193;SDS011;69515;42.072;21.504;2023-07-31T12:39:15;0.10;;;0.10;;
80193;SDS011;69515;42.072;21.504;2023-07-31T12:41:42;0.03;;;0.03;;
80193;SDS011;69515;42.072;21.504;2023-07-31T12:44:08;0.08;;;0.08;;
80193;SDS011;69515;42.072;21.504;2023-07-31T12:46:35;0.10;;;0.10;;
80193;SDS011;69515;42.072;21.504;2023-07-31T12:49:01;0.05;;;0.05;;
80193;SDS011;69515;42.072;21.504;2023-07-31T12:51:28;0.00;;;0.00;;
80193;SDS011;69515;42.072;21.504;2023-07-31T12:53:54;0.05;;;0.05;;
80193;SDS011;69515;42.072;21.504;2023-07-31T12:56:20;0.10;;;0.10;;
80193;SDS011;69515;42.072;21.504;2023-07-31T12:58:47;0.00;;;0.00;;
80193;SDS011;69515;42.072;21.504;2023-07-31T13:01:13;0.00;;;0.00;;
80193;SDS011;69515;42.072;21.504;2023-07-31T13:03:39;0.03;;;0.03;;
80193;SDS011;69515;42.072;21.504;2023-07-31T13:06:05;0.00;;;0.00;;
80193;SDS011;69515;42.072;21.504;2023-07-31T13:08:31;0.10;;;0.10;;
80193;SDS011;69515;42.072;21.504;2023-07-31T13:10:58;0.00;;;0.00;;
80193;SDS011;69515;42.072;21.504;2023-07-31T13:13:24;0.13;;;0.10;;
80193;SDS011;69515;42.072;21.504;2023-07-31T13:15:50;0.00;;;0.00;;
80193;SDS011;69515;42.072;21.504;2023-07-31T13:18:17;0.13;;;0.05;;
80193;SDS011;69515;42.072;21.504;2023-07-31T13:20:43;0.10;;;0.10;;
80193;SDS011;69515;42.072;21.504;2023-07-31T13:23:09;0.28;;;0.03;;
80193;SDS011;69515;42.072;21.504;2023-07-31T13:25:35;0.00;;;0.00;;
80193;SDS011;69515;42.072;21.504;2023-07-31T13:28:01;0.10;;;0.10;;
80193;SDS011;69515;42.072;21.504;2023-07-31T13:30:28;0.00;;;0.00;;
80193;SDS011;69515;42.072;21.504;2023-07-31T13:32:54;0.00;;;0.00;;
80193;SDS011;69515;42.072;21.504;2023-07-31T13:35:20;0.10;;;0.10;;
80193;SDS011;69515;42.072;21.504;2023-07-31T13:37:46;0.10;;;0.10;;
80193;SDS011;69515;42.072;21.504;2023-07-31T13:40:12;0.00;;;0.00;;
80193;SDS011;69515;42.072;21.504;2023-07-31T13:42:40;0.08;;;0.08;;
80193;SDS011;69515;42.072;21.504;2023-07-31T13:45:06;0.10;;;0.10;;
80193;SDS011;69515;42.072;21.504;2023-07-31T13:47:32;0.00;;;0.00;;
80193;SDS011;69515;42.072;21.504;2023-07-31T13:49:59;0.00;;;0.00;;
80193;SDS011;69515;42.072;21.504;2023-07-31T13:52:25;0.05;;;0.05;;
80193;SDS011;69515;42.072;21.504;2023-07-31T13:54:51;0.00;;;0.00;;
80193;SDS011;69515;42.072;21.504;2023-07-31T13:57:17;0.00;;;0.00;;
80193;SDS011;69515;42.072;21.504;2023-07-31T13:59:44;0.00;;;0.00;;
80193;SDS011;69515;42.072;21.504;2023-07-31T14:02:10;0.20;;;0.10;;
80193;SDS011;69515;42.072;21.504;2023-07-31T14:04:36;0.05;;;0.05;;
80193;SDS011;69515;42.072;21.504;2023-07-31T14:07:02;0.20;;;0.10;;
80193;SDS011;69515;42.072;21.504;2023-07-31T14:09:29;0.03;;;0.03;;
80193;SDS011;69515;42.072;21.504;2023-07-31T14:11:55;0.10;;;0.10;;
80193;SDS011;69515;42.072;21.504;2023-07-31T14:14:21;0.03;;;0.03;;
80193;SDS011;69515;42.072;21.504;2023-07-31T14:16:48;0.10;;;0.10;;
80193;SDS011;69515;42.072;21.504;2023-07-31T14:19:14;0.00;;;0.00;;
80193;SDS011;69515;42.072;21.504;2023-07-31T14:21:40;0.10;;;0.00;;
80193;SDS011;69515;42.072;21.504;2023-07-31T14:24:06;0.25;;;0.10;;
80193;SDS011;69515;42.072;21.504;2023-07-31T14:26:32;0.15;;;0.10;;
80193;SDS011;69515;42.072;21.504;2023-07-31T14:28:59;0.10;;;0.10;;
80193;SDS011;69515;42.072;21.504;2023-07-31T14:31:25;0.10;;;0.10;;
80193;SDS011;69515;42.072;21.504;2023-07-31T14:33:51;0.03;;;0.03;;
80193;SDS011;69515;42.072;21.504;2023-07-31T14:36:17;0.00;;;0.00;;
80193;SDS011;69515;42.072;21.504;2023-07-31T14:38:43;0.00;;;0.00;;
80193;SDS011;69515;42.072;21.504;2023-07-31T14:41:09;0.10;;;0.10;;
80193;SDS011;69515;42.072;21.504;2023-07-31T14:43:36;0.10;;;0.10;;